sensor_id;sensor_type;location;lat;lon;timestamp;temperature;humidity
32293;DHT22;43233;48.608;8.838;2024-02-23T00:01:32;6.20;66.20
32293;DHT22;43233;48.608;8.838;2024-02-23T00:03:57;6.20;65.70
32293;DHT22;43233;48.608;8.838;2024-02-23T00:06:23;6.10;64.40
32293;DHT22;43233;48.608;8.838;2024-02-23T00:08:53;6.10;64.60
32293;DHT22;43233;48.608;8.838;2024-02-23T00:11:20;6.10;64.50
32293;DHT22;43233;48.608;8.838;2024-02-23T00:13:46;6.10;64.40
32293;DHT22;43233;48.608;8.838;2024-02-23T00:16:12;6.10;64.00
32293;DHT22;43233;48.608;8.838;2024-02-23T00:18:38;6.10;63.60
32293;DHT22;43233;48.608;8.838;2024-02-23T00:21:04;6.10;63.50
32293;DHT22;43233;48.608;8.838;2024-02-23T00:23:29;6.10;63.80
32293;DHT22;43233;48.608;8.838;2024-02-23T00:25:55;6.10;63.90
32293;DHT22;43233;48.608;8.838;2024-02-23T00:28:21;6.10;62.90
32293;DHT22;43233;48.608;8.838;2024-02-23T00:30:47;6.10;63.40
32293;DHT22;43233;48.608;8.838;2024-02-23T00:33:12;6.10;63.50
32293;DHT22;43233;48.608;8.838;2024-02-23T00:35:38;6.10;63.30
32293;DHT22;43233;48.608;8.838;2024-02-23T00:38:04;6.00;63.40
32293;DHT22;43233;48.608;8.838;2024-02-23T00:40:29;6.00;63.30
32293;DHT22;43233;48.608;8.838;2024-02-23T00:42:55;6.00;63.00
32293;DHT22;43233;48.608;8.838;2024-02-23T00:45:21;6.00;63.10
32293;DHT22;43233;48.608;8.838;2024-02-23T00:47:47;6.00;63.00
32293;DHT22;43233;48.608;8.838;2024-02-23T00:50:13;6.00;62.70
32293;DHT22;43233;48.608;8.838;2024-02-23T00:52:39;5.90;62.70
32293;DHT22;43233;48.608;8.838;2024-02-23T00:55:06;5.90;63.30
32293;DHT22;43233;48.608;8.838;2024-02-23T00:57:34;5.90;63.10
32293;DHT22;43233;48.608;8.838;2024-02-23T01:00:01;5.90;63.20
32293;DHT22;43233;48.608;8.838;2024-02-23T01:02:26;5.90;63.50
32293;DHT22;43233;48.608;8.838;2024-02-23T01:04:52;5.90;63.50
32293;DHT22;43233;48.608;8.838;2024-02-23T01:07:22;5.90;63.20
32293;DHT22;43233;48.608;8.838;2024-02-23T01:09:48;5.90;62.90
32293;DHT22;43233;48.608;8.838;2024-02-23T01:12:14;5.90;62.90
32293;DHT22;43233;48.608;8.838;2024-02-23T01:14:39;5.80;62.50
32293;DHT22;43233;48.608;8.838;2024-02-23T01:17:05;5.80;62.70
32293;DHT22;43233;48.608;8.838;2024-02-23T01:19:31;5.80;63.10
32293;DHT22;43233;48.608;8.838;2024-02-23T01:21:56;5.80;62.70
32293;DHT22;43233;48.608;8.838;2024-02-23T01:24:28;5.80;62.70
32293;DHT22;43233;48.608;8.838;2024-02-23T01:26:55;5.70;62.70
32293;DHT22;43233;48.608;8.838;2024-02-23T01:29:22;5.70;62.90
32293;DHT22;43233;48.608;8.838;2024-02-23T01:31:50;5.70;62.90
32293;DHT22;43233;48.608;8.838;2024-02-23T01:34:16;5.70;63.00
32293;DHT22;43233;48.608;8.838;2024-02-23T01:36:42;5.70;63.10
32293;DHT22;43233;48.608;8.838;2024-02-23T01:39:08;5.70;62.50
32293;DHT22;43233;48.608;8.838;2024-02-23T01:41:33;5.70;62.30
32293;DHT22;43233;48.608;8.838;2024-02-23T01:43:59;5.70;61.40
32293;DHT22;43233;48.608;8.838;2024-02-23T01:46:25;5.70;61.60
32293;DHT22;43233;48.608;8.838;2024-02-23T01:48:50;5.70;61.80
32293;DHT22;43233;48.608;8.838;2024-02-23T01:51:16;5.70;62.10
32293;DHT22;43233;48.608;8.838;2024-02-23T01:53:42;5.60;62.00
32293;DHT22;43233;48.608;8.838;2024-02-23T01:56:09;5.70;62.70
32293;DHT22;43233;48.608;8.838;2024-02-23T01:58:37;5.60;62.20
32293;DHT22;43233;48.608;8.838;2024-02-23T02:01:03;5.60;62.70
32293;DHT22;43233;48.608;8.838;2024-02-23T02:03:29;5.60;62.80
32293;DHT22;43233;48.608;8.838;2024-02-23T02:05:56;5.60;63.00
32293;DHT22;43233;48.608;8.838;2024-02-23T02:08:25;5.60;63.00
32293;DHT22;43233;48.608;8.838;2024-02-23T02:10:51;5.60;62.20
32293;DHT22;43233;48.608;8.838;2024-02-23T02:13:16;5.60;62.70
32293;DHT22;43233;48.608;8.838;2024-02-23T02:15:42;5.60;62.10
32293;DHT22;43233;48.608;8.838;2024-02-23T02:18:09;5.60;61.70
32293;DHT22;43233;48.608;8.838;2024-02-23T02:20:36;5.50;59.50
32293;DHT22;43233;48.608;8.838;2024-02-23T02:23:02;5.50;59.00
32293;DHT22;43233;48.608;8.838;2024-02-23T02:25:27;5.50;58.80
32293;DHT22;43233;48.608;8.838;2024-02-23T02:27:53;5.50;58.70
32293;DHT22;43233;48.608;8.838;2024-02-23T02:30:19;5.60;57.30
32293;DHT22;43233;48.608;8.838;2024-02-23T02:32:45;5.60;56.80
32293;DHT22;43233;48.608;8.838;2024-02-23T02:35:11;5.50;55.40
32293;DHT22;43233;48.608;8.838;2024-02-23T02:37:38;5.50;55.80
32293;DHT22;43233;48.608;8.838;2024-02-23T02:40:04;5.50;56.00
32293;DHT22;43233;48.608;8.838;2024-02-23T02:42:30;5.50;56.10
32293;DHT22;43233;48.608;8.838;2024-02-23T02:44:56;5.40;55.70
32293;DHT22;43233;48.608;8.838;2024-02-23T02:47:22;5.40;55.00
32293;DHT22;43233;48.608;8.838;2024-02-23T02:49:48;5.40;55.30
32293;DHT22;43233;48.608;8.838;2024-02-23T02:52:14;5.30;54.80
32293;DHT22;43233;48.608;8.838;2024-02-23T02:54:39;5.40;55.00
32293;DHT22;43233;48.608;8.838;2024-02-23T02:57:05;5.30;54.90
32293;DHT22;43233;48.608;8.838;2024-02-23T02:59:34;5.30;54.90
32293;DHT22;43233;48.608;8.838;2024-02-23T03:02:00;5.30;55.10
32293;DHT22;43233;48.608;8.838;2024-02-23T03:04:26;5.30;54.40
32293;DHT22;43233;48.608;8.838;2024-02-23T03:06:52;5.20;54.80
32293;DHT22;43233;48.608;8.838;2024-02-23T03:09:17;5.30;54.90
32293;DHT22;43233;48.608;8.838;2024-02-23T03:11:43;5.30;54.20
32293;DHT22;43233;48.608;8.838;2024-02-23T03:14:08;5.30;53.40
32293;DHT22;43233;48.608;8.838;2024-02-23T03:16:35;5.20;51.60
32293;DHT22;43233;48.608;8.838;2024-02-23T03:19:02;5.20;51.50
32293;DHT22;43233;48.608;8.838;2024-02-23T03:21:28;5.10;51.20
32293;DHT22;43233;48.608;8.838;2024-02-23T03:23:54;5.10;52.30
32293;DHT22;43233;48.608;8.838;2024-02-23T03:26:19;5.10;52.60
32293;DHT22;43233;48.608;8.838;2024-02-23T03:28:45;5.10;52.40
32293;DHT22;43233;48.608;8.838;2024-02-23T03:31:11;5.10;52.80
32293;DHT22;43233;48.608;8.838;2024-02-23T03:33:37;5.10;53.40
32293;DHT22;43233;48.608;8.838;2024-02-23T03:36:03;5.00;53.50
32293;DHT22;43233;48.608;8.838;2024-02-23T03:38:29;5.00;52.70
32293;DHT22;43233;48.608;8.838;2024-02-23T03:40:55;5.10;53.50
32293;DHT22;43233;48.608;8.838;2024-02-23T03:43:21;5.00;53.50
32293;DHT22;43233;48.608;8.838;2024-02-23T03:45:47;4.90;53.80
32293;DHT22;43233;48.608;8.838;2024-02-23T03:48:13;5.00;53.30
32293;DHT22;43233;48.608;8.838;2024-02-23T03:50:38;5.00;52.90
32293;DHT22;43233;48.608;8.838;2024-02-23T03:53:04;5.00;52.50
32293;DHT22;43233;48.608;8.838;2024-02-23T03:55:29;5.00;52.90
32293;DHT22;43233;48.608;8.838;2024-02-23T03:57:55;5.00;52.90
32293;DHT22;43233;48.608;8.838;2024-02-23T04:00:21;5.00;52.60
32293;DHT22;43233;48.608;8.838;2024-02-23T04:02:48;4.90;52.40
32293;DHT22;43233;48.608;8.838;2024-02-23T04:05:14;4.90;52.40
32293;DHT22;43233;48.608;8.838;2024-02-23T04:07:40;4.90;52.70
32293;DHT22;43233;48.608;8.838;2024-02-23T04:10:06;5.00;52.50
32293;DHT22;43233;48.608;8.838;2024-02-23T04:12:32;4.90;52.60
32293;DHT22;43233;48.608;8.838;2024-02-23T04:14:58;4.90;52.90
32293;DHT22;43233;48.608;8.838;2024-02-23T04:17:23;4.90;53.00
32293;DHT22;43233;48.608;8.838;2024-02-23T04:19:49;4.80;53.30
32293;DHT22;43233;48.608;8.838;2024-02-23T04:22:14;4.80;53.80
32293;DHT22;43233;48.608;8.838;2024-02-23T04:24:41;4.80;53.80
32293;DHT22;43233;48.608;8.838;2024-02-23T04:27:07;4.80;53.70
32293;DHT22;43233;48.608;8.838;2024-02-23T04:29:34;4.80;53.80
32293;DHT22;43233;48.608;8.838;2024-02-23T04:32:00;4.70;53.90
32293;DHT22;43233;48.608;8.838;2024-02-23T04:34:27;4.70;54.50
32293;DHT22;43233;48.608;8.838;2024-02-23T04:36:53;4.60;55.10
32293;DHT22;43233;48.608;8.838;2024-02-23T04:39:18;4.60;55.40
32293;DHT22;43233;48.608;8.838;2024-02-23T04:41:44;4.50;55.90
32293;DHT22;43233;48.608;8.838;2024-02-23T04:44:10;4.50;56.20
32293;DHT22;43233;48.608;8.838;2024-02-23T04:46:35;4.50;56.40
32293;DHT22;43233;48.608;8.838;2024-02-23T04:49:01;4.50;56.70
32293;DHT22;43233;48.608;8.838;2024-02-23T04:51:27;4.50;56.90
32293;DHT22;43233;48.608;8.838;2024-02-23T04:53:53;4.50;57.00
32293;DHT22;43233;48.608;8.838;2024-02-23T04:56:19;4.50;56.90
32293;DHT22;43233;48.608;8.838;2024-02-23T04:58:45;4.50;56.70
32293;DHT22;43233;48.608;8.838;2024-02-23T05:01:11;4.50;56.90
32293;DHT22;43233;48.608;8.838;2024-02-23T05:03:37;4.50;57.10
32293;DHT22;43233;48.608;8.838;2024-02-23T05:06:03;4.40;57.00
32293;DHT22;43233;48.608;8.838;2024-02-23T05:08:29;4.40;57.20
32293;DHT22;43233;48.608;8.838;2024-02-23T05:10:56;4.40;57.50
32293;DHT22;43233;48.608;8.838;2024-02-23T05:13:22;4.40;57.60
32293;DHT22;43233;48.608;8.838;2024-02-23T05:15:48;4.40;57.80
32293;DHT22;43233;48.608;8.838;2024-02-23T05:18:14;4.40;57.50
32293;DHT22;43233;48.608;8.838;2024-02-23T05:20:39;4.30;57.80
32293;DHT22;43233;48.608;8.838;2024-02-23T05:23:05;4.30;57.70
32293;DHT22;43233;48.608;8.838;2024-02-23T05:25:31;4.30;58.10
32293;DHT22;43233;48.608;8.838;2024-02-23T05:27:56;4.20;58.20
32293;DHT22;43233;48.608;8.838;2024-02-23T05:30:22;4.20;58.50
32293;DHT22;43233;48.608;8.838;2024-02-23T05:32:48;4.10;59.10
32293;DHT22;43233;48.608;8.838;2024-02-23T05:35:14;4.10;59.90
32293;DHT22;43233;48.608;8.838;2024-02-23T05:37:41;4.10;60.30
32293;DHT22;43233;48.608;8.838;2024-02-23T05:40:07;4.00;60.80
32293;DHT22;43233;48.608;8.838;2024-02-23T05:42:36;4.00;61.60
32293;DHT22;43233;48.608;8.838;2024-02-23T05:45:02;4.00;62.30
32293;DHT22;43233;48.608;8.838;2024-02-23T05:47:30;4.00;63.60
32293;DHT22;43233;48.608;8.838;2024-02-23T05:49:56;4.00;64.10
32293;DHT22;43233;48.608;8.838;2024-02-23T05:52:22;4.00;64.20
32293;DHT22;43233;48.608;8.838;2024-02-23T05:54:48;4.00;64.40
32293;DHT22;43233;48.608;8.838;2024-02-23T05:57:13;4.00;64.80
32293;DHT22;43233;48.608;8.838;2024-02-23T05:59:39;3.90;65.50
32293;DHT22;43233;48.608;8.838;2024-02-23T06:02:04;3.90;66.00
32293;DHT22;43233;48.608;8.838;2024-02-23T06:04:31;3.80;66.90
32293;DHT22;43233;48.608;8.838;2024-02-23T06:06:56;3.80;67.40
32293;DHT22;43233;48.608;8.838;2024-02-23T06:09:22;3.70;68.30
32293;DHT22;43233;48.608;8.838;2024-02-23T06:11:48;3.70;68.30
32293;DHT22;43233;48.608;8.838;2024-02-23T06:14:14;3.70;68.50
32293;DHT22;43233;48.608;8.838;2024-02-23T06:16:39;3.70;68.80
32293;DHT22;43233;48.608;8.838;2024-02-23T06:19:06;3.70;68.80
32293;DHT22;43233;48.608;8.838;2024-02-23T06:21:31;3.80;68.60
32293;DHT22;43233;48.608;8.838;2024-02-23T06:23:58;3.80;68.60
32293;DHT22;43233;48.608;8.838;2024-02-23T06:26:23;3.80;68.40
32293;DHT22;43233;48.608;8.838;2024-02-23T06:28:49;3.80;68.40
32293;DHT22;43233;48.608;8.838;2024-02-23T06:31:15;3.80;68.40
32293;DHT22;43233;48.608;8.838;2024-02-23T06:33:40;3.80;67.90
32293;DHT22;43233;48.608;8.838;2024-02-23T06:36:06;3.80;68.00
32293;DHT22;43233;48.608;8.838;2024-02-23T06:38:33;3.70;68.00
32293;DHT22;43233;48.608;8.838;2024-02-23T06:40:59;3.80;67.80
32293;DHT22;43233;48.608;8.838;2024-02-23T06:43:24;3.70;67.60
32293;DHT22;43233;48.608;8.838;2024-02-23T06:45:51;3.80;67.40
32293;DHT22;43233;48.608;8.838;2024-02-23T06:48:16;3.80;67.40
32293;DHT22;43233;48.608;8.838;2024-02-23T06:50:42;3.80;67.00
32293;DHT22;43233;48.608;8.838;2024-02-23T06:53:08;3.70;66.90
32293;DHT22;43233;48.608;8.838;2024-02-23T06:55:34;3.70;66.80
32293;DHT22;43233;48.608;8.838;2024-02-23T06:58:01;3.80;66.70
32293;DHT22;43233;48.608;8.838;2024-02-23T07:00:26;3.80;66.70
32293;DHT22;43233;48.608;8.838;2024-02-23T07:02:52;3.80;66.80
32293;DHT22;43233;48.608;8.838;2024-02-23T07:05:18;3.80;67.00
32293;DHT22;43233;48.608;8.838;2024-02-23T07:07:43;3.80;67.30
32293;DHT22;43233;48.608;8.838;2024-02-23T07:10:09;3.80;67.60
32293;DHT22;43233;48.608;8.838;2024-02-23T07:12:36;3.80;67.70
32293;DHT22;43233;48.608;8.838;2024-02-23T07:15:02;3.90;67.90
32293;DHT22;43233;48.608;8.838;2024-02-23T07:17:27;3.90;68.10
32293;DHT22;43233;48.608;8.838;2024-02-23T07:19:53;3.90;68.30
32293;DHT22;43233;48.608;8.838;2024-02-23T07:22:19;3.90;68.40
32293;DHT22;43233;48.608;8.838;2024-02-23T07:24:45;4.00;68.30
32293;DHT22;43233;48.608;8.838;2024-02-23T07:27:11;4.00;68.20
32293;DHT22;43233;48.608;8.838;2024-02-23T07:29:36;4.00;68.20
32293;DHT22;43233;48.608;8.838;2024-02-23T07:32:02;4.00;68.10
32293;DHT22;43233;48.608;8.838;2024-02-23T07:34:28;4.10;68.00
32293;DHT22;43233;48.608;8.838;2024-02-23T07:36:54;4.10;67.70
32293;DHT22;43233;48.608;8.838;2024-02-23T07:39:20;4.10;67.10
32293;DHT22;43233;48.608;8.838;2024-02-23T07:41:47;4.10;67.20
32293;DHT22;43233;48.608;8.838;2024-02-23T07:44:13;4.20;66.20
32293;DHT22;43233;48.608;8.838;2024-02-23T07:46:38;4.30;65.90
32293;DHT22;43233;48.608;8.838;2024-02-23T07:49:04;4.30;65.40
32293;DHT22;43233;48.608;8.838;2024-02-23T07:51:31;4.30;65.20
32293;DHT22;43233;48.608;8.838;2024-02-23T07:53:57;4.30;65.00
32293;DHT22;43233;48.608;8.838;2024-02-23T07:56:23;4.30;65.00
32293;DHT22;43233;48.608;8.838;2024-02-23T07:58:48;4.30;64.90
32293;DHT22;43233;48.608;8.838;2024-02-23T08:01:14;4.30;64.70
32293;DHT22;43233;48.608;8.838;2024-02-23T08:03:40;4.30;63.90
32293;DHT22;43233;48.608;8.838;2024-02-23T08:06:06;4.40;62.70
32293;DHT22;43233;48.608;8.838;2024-02-23T08:08:32;4.40;62.60
32293;DHT22;43233;48.608;8.838;2024-02-23T08:11:04;4.40;62.60
32293;DHT22;43233;48.608;8.838;2024-02-23T08:13:30;4.40;62.40
32293;DHT22;43233;48.608;8.838;2024-02-23T08:15:57;4.50;61.50
32293;DHT22;43233;48.608;8.838;2024-02-23T08:18:23;4.60;60.30
32293;DHT22;43233;48.608;8.838;2024-02-23T08:20:48;4.70;59.30
32293;DHT22;43233;48.608;8.838;2024-02-23T08:23:14;4.80;59.00
32293;DHT22;43233;48.608;8.838;2024-02-23T08:25:40;4.90;58.20
32293;DHT22;43233;48.608;8.838;2024-02-23T08:28:07;5.00;56.80
32293;DHT22;43233;48.608;8.838;2024-02-23T08:30:33;5.00;56.10
32293;DHT22;43233;48.608;8.838;2024-02-23T08:32:58;5.10;56.30
32293;DHT22;43233;48.608;8.838;2024-02-23T08:35:25;5.10;56.00
32293;DHT22;43233;48.608;8.838;2024-02-23T08:37:50;5.20;55.30
32293;DHT22;43233;48.608;8.838;2024-02-23T08:40:16;5.20;54.90
32293;DHT22;43233;48.608;8.838;2024-02-23T08:42:41;5.50;54.60
32293;DHT22;43233;48.608;8.838;2024-02-23T08:45:08;5.70;53.10
32293;DHT22;43233;48.608;8.838;2024-02-23T08:47:35;6.00;51.20
32293;DHT22;43233;48.608;8.838;2024-02-23T08:50:01;6.10;50.90
32293;DHT22;43233;48.608;8.838;2024-02-23T08:52:27;6.30;50.30
32293;DHT22;43233;48.608;8.838;2024-02-23T08:54:52;6.30;49.10
32293;DHT22;43233;48.608;8.838;2024-02-23T08:57:18;6.40;49.50
32293;DHT22;43233;48.608;8.838;2024-02-23T08:59:45;6.50;50.00
32293;DHT22;43233;48.608;8.838;2024-02-23T09:02:12;6.80;49.70
32293;DHT22;43233;48.608;8.838;2024-02-23T09:04:37;7.10;49.30
32293;DHT22;43233;48.608;8.838;2024-02-23T09:07:03;7.50;47.80
32293;DHT22;43233;48.608;8.838;2024-02-23T09:09:29;8.00;45.70
32293;DHT22;43233;48.608;8.838;2024-02-23T09:11:55;8.50;45.90
32293;DHT22;43233;48.608;8.838;2024-02-23T09:14:21;9.00;42.70
32293;DHT22;43233;48.608;8.838;2024-02-23T09:16:46;9.40;39.90
32293;DHT22;43233;48.608;8.838;2024-02-23T09:19:13;9.70;41.80
32293;DHT22;43233;48.608;8.838;2024-02-23T09:21:38;9.90;39.40
32293;DHT22;43233;48.608;8.838;2024-02-23T09:24:05;10.10;37.30
32293;DHT22;43233;48.608;8.838;2024-02-23T09:26:30;10.00;37.30
32293;DHT22;43233;48.608;8.838;2024-02-23T09:28:56;9.80;37.60
32293;DHT22;43233;48.608;8.838;2024-02-23T09:31:22;9.60;38.20
32293;DHT22;43233;48.608;8.838;2024-02-23T09:33:47;9.40;39.80
32293;DHT22;43233;48.608;8.838;2024-02-23T09:36:16;9.00;39.80
32293;DHT22;43233;48.608;8.838;2024-02-23T09:38:42;8.70;39.80
32293;DHT22;43233;48.608;8.838;2024-02-23T09:41:19;8.30;41.20
32293;DHT22;43233;48.608;8.838;2024-02-23T09:43:44;7.80;42.00
32293;DHT22;43233;48.608;8.838;2024-02-23T09:46:12;7.30;44.30
32293;DHT22;43233;48.608;8.838;2024-02-23T09:48:38;7.00;46.60
32293;DHT22;43233;48.608;8.838;2024-02-23T09:51:05;6.60;47.60
32293;DHT22;43233;48.608;8.838;2024-02-23T09:53:32;6.30;49.60
32293;DHT22;43233;48.608;8.838;2024-02-23T09:55:59;6.10;50.40
32293;DHT22;43233;48.608;8.838;2024-02-23T09:58:26;5.90;51.50
32293;DHT22;43233;48.608;8.838;2024-02-23T10:00:56;5.70;51.80
32293;DHT22;43233;48.608;8.838;2024-02-23T10:03:24;5.60;52.00
32293;DHT22;43233;48.608;8.838;2024-02-23T10:05:51;5.50;51.90
32293;DHT22;43233;48.608;8.838;2024-02-23T10:08:17;5.50;51.20
32293;DHT22;43233;48.608;8.838;2024-02-23T10:10:46;5.40;51.90
32293;DHT22;43233;48.608;8.838;2024-02-23T10:13:11;5.40;51.60
32293;DHT22;43233;48.608;8.838;2024-02-23T10:15:37;5.40;51.90
32293;DHT22;43233;48.608;8.838;2024-02-23T10:18:04;5.40;52.60
32293;DHT22;43233;48.608;8.838;2024-02-23T10:20:29;5.30;52.20
32293;DHT22;43233;48.608;8.838;2024-02-23T10:22:56;5.40;52.80
32293;DHT22;43233;48.608;8.838;2024-02-23T10:25:22;5.40;53.60
32293;DHT22;43233;48.608;8.838;2024-02-23T10:27:47;5.40;54.30
32293;DHT22;43233;48.608;8.838;2024-02-23T10:30:13;5.40;53.70
32293;DHT22;43233;48.608;8.838;2024-02-23T10:32:41;5.40;52.90
32293;DHT22;43233;48.608;8.838;2024-02-23T10:35:25;5.50;51.80
32293;DHT22;43233;48.608;8.838;2024-02-23T10:37:53;5.70;52.90
32293;DHT22;43233;48.608;8.838;2024-02-23T10:40:20;5.90;51.60
32293;DHT22;43233;48.608;8.838;2024-02-23T10:42:48;6.20;51.70
32293;DHT22;43233;48.608;8.838;2024-02-23T10:45:18;6.60;50.20
32293;DHT22;43233;48.608;8.838;2024-02-23T10:47:44;7.20;48.80
32293;DHT22;43233;48.608;8.838;2024-02-23T10:50:10;7.40;46.00
32293;DHT22;43233;48.608;8.838;2024-02-23T10:52:41;7.70;44.50
32293;DHT22;43233;48.608;8.838;2024-02-23T10:55:09;7.90;44.90
32293;DHT22;43233;48.608;8.838;2024-02-23T10:57:35;7.90;44.50
32293;DHT22;43233;48.608;8.838;2024-02-23T11:00:02;7.80;42.10
32293;DHT22;43233;48.608;8.838;2024-02-23T11:02:33;7.50;42.90
32293;DHT22;43233;48.608;8.838;2024-02-23T11:05:00;7.30;42.90
32293;DHT22;43233;48.608;8.838;2024-02-23T11:07:26;7.20;43.40
32293;DHT22;43233;48.608;8.838;2024-02-23T11:09:59;7.20;43.80
32293;DHT22;43233;48.608;8.838;2024-02-23T11:12:26;7.00;44.90
32293;DHT22;43233;48.608;8.838;2024-02-23T11:14:58;7.00;45.80
32293;DHT22;43233;48.608;8.838;2024-02-23T11:17:26;6.90;45.70
32293;DHT22;43233;48.608;8.838;2024-02-23T11:19:54;6.90;46.30
32293;DHT22;43233;48.608;8.838;2024-02-23T11:22:27;6.80;47.40
32293;DHT22;43233;48.608;8.838;2024-02-23T11:24:59;6.80;46.50
32293;DHT22;43233;48.608;8.838;2024-02-23T11:27:24;6.80;47.10
32293;DHT22;43233;48.608;8.838;2024-02-23T11:30:02;6.70;47.40
32293;DHT22;43233;48.608;8.838;2024-02-23T11:35:06;6.80;47.80
32293;DHT22;43233;48.608;8.838;2024-02-23T11:37:31;6.80;48.00
32293;DHT22;43233;48.608;8.838;2024-02-23T11:39:59;6.90;46.90
32293;DHT22;43233;48.608;8.838;2024-02-23T11:42:27;6.90;45.90
32293;DHT22;43233;48.608;8.838;2024-02-23T11:44:53;7.00;46.40
32293;DHT22;43233;48.608;8.838;2024-02-23T11:47:24;7.00;45.30
32293;DHT22;43233;48.608;8.838;2024-02-23T11:49:50;7.10;46.10
32293;DHT22;43233;48.608;8.838;2024-02-23T11:52:15;7.60;46.50
32293;DHT22;43233;48.608;8.838;2024-02-23T11:54:42;8.30;43.80
32293;DHT22;43233;48.608;8.838;2024-02-23T11:57:08;8.60;42.40
32293;DHT22;43233;48.608;8.838;2024-02-23T11:59:33;9.20;40.80
32293;DHT22;43233;48.608;8.838;2024-02-23T12:01:59;9.40;38.80
32293;DHT22;43233;48.608;8.838;2024-02-23T12:04:27;9.60;36.80
32293;DHT22;43233;48.608;8.838;2024-02-23T12:06:54;10.40;36.40
32293;DHT22;43233;48.608;8.838;2024-02-23T12:09:20;11.10;35.20
32293;DHT22;43233;48.608;8.838;2024-02-23T12:11:45;11.40;33.70
32293;DHT22;43233;48.608;8.838;2024-02-23T12:14:11;11.30;32.60
32293;DHT22;43233;48.608;8.838;2024-02-23T12:16:37;10.90;32.60
32293;DHT22;43233;48.608;8.838;2024-02-23T12:19:02;10.60;33.60
32293;DHT22;43233;48.608;8.838;2024-02-23T12:21:28;10.30;33.90
32293;DHT22;43233;48.608;8.838;2024-02-23T12:23:54;9.70;34.30
32293;DHT22;43233;48.608;8.838;2024-02-23T12:26:20;9.40;35.80
32293;DHT22;43233;48.608;8.838;2024-02-23T12:28:46;9.30;37.70
32293;DHT22;43233;48.608;8.838;2024-02-23T12:31:12;9.10;37.10
32293;DHT22;43233;48.608;8.838;2024-02-23T12:33:39;8.90;37.50
32293;DHT22;43233;48.608;8.838;2024-02-23T12:36:13;8.60;38.00
32293;DHT22;43233;48.608;8.838;2024-02-23T12:38:38;8.40;39.20
32293;DHT22;43233;48.608;8.838;2024-02-23T12:41:04;8.30;40.30
32293;DHT22;43233;48.608;8.838;2024-02-23T12:43:30;8.10;41.20
32293;DHT22;43233;48.608;8.838;2024-02-23T12:45:56;8.00;41.00
32293;DHT22;43233;48.608;8.838;2024-02-23T12:48:22;7.90;41.50
32293;DHT22;43233;48.608;8.838;2024-02-23T12:50:49;7.80;42.60
32293;DHT22;43233;48.608;8.838;2024-02-23T12:53:34;7.80;43.10
32293;DHT22;43233;48.608;8.838;2024-02-23T12:56:02;7.70;43.00
32293;DHT22;43233;48.608;8.838;2024-02-23T12:58:28;7.70;42.90
32293;DHT22;43233;48.608;8.838;2024-02-23T13:00:54;7.60;42.40
32293;DHT22;43233;48.608;8.838;2024-02-23T13:03:20;7.70;43.00
32293;DHT22;43233;48.608;8.838;2024-02-23T13:05:46;7.70;43.50
32293;DHT22;43233;48.608;8.838;2024-02-23T13:08:12;7.60;43.20
32293;DHT22;43233;48.608;8.838;2024-02-23T13:10:37;7.70;43.40
32293;DHT22;43233;48.608;8.838;2024-02-23T13:13:03;7.60;42.50
32293;DHT22;43233;48.608;8.838;2024-02-23T13:15:29;7.60;43.60
32293;DHT22;43233;48.608;8.838;2024-02-23T13:17:54;7.60;43.90
32293;DHT22;43233;48.608;8.838;2024-02-23T13:20:22;7.60;42.80
32293;DHT22;43233;48.608;8.838;2024-02-23T13:22:48;7.50;42.80
32293;DHT22;43233;48.608;8.838;2024-02-23T13:25:14;7.50;43.30
32293;DHT22;43233;48.608;8.838;2024-02-23T13:27:39;7.50;43.60
32293;DHT22;43233;48.608;8.838;2024-02-23T13:30:05;7.50;44.20
32293;DHT22;43233;48.608;8.838;2024-02-23T13:32:32;7.70;43.40
32293;DHT22;43233;48.608;8.838;2024-02-23T13:34:58;7.70;43.50
32293;DHT22;43233;48.608;8.838;2024-02-23T13:37:23;7.80;42.80
32293;DHT22;43233;48.608;8.838;2024-02-23T13:39:49;7.80;42.80
32293;DHT22;43233;48.608;8.838;2024-02-23T13:42:14;8.00;43.00
32293;DHT22;43233;48.608;8.838;2024-02-23T13:44:40;8.00;42.60
32293;DHT22;43233;48.608;8.838;2024-02-23T13:47:06;8.00;41.70
32293;DHT22;43233;48.608;8.838;2024-02-23T13:49:32;8.10;42.40
32293;DHT22;43233;48.608;8.838;2024-02-23T13:51:58;8.00;42.20
32293;DHT22;43233;48.608;8.838;2024-02-23T13:54:23;8.10;42.60
32293;DHT22;43233;48.608;8.838;2024-02-23T13:56:49;8.20;41.50
32293;DHT22;43233;48.608;8.838;2024-02-23T13:59:15;8.20;41.80
32293;DHT22;43233;48.608;8.838;2024-02-23T14:01:41;8.30;42.20
32293;DHT22;43233;48.608;8.838;2024-02-23T14:04:07;8.40;41.80
32293;DHT22;43233;48.608;8.838;2024-02-23T14:06:33;8.40;41.50
32293;DHT22;43233;48.608;8.838;2024-02-23T14:08:59;8.30;40.80
32293;DHT22;43233;48.608;8.838;2024-02-23T14:11:24;8.20;41.00
32293;DHT22;43233;48.608;8.838;2024-02-23T14:13:50;8.00;41.60
32293;DHT22;43233;48.608;8.838;2024-02-23T14:16:16;7.90;42.40
32293;DHT22;43233;48.608;8.838;2024-02-23T14:18:42;7.70;42.70
32293;DHT22;43233;48.608;8.838;2024-02-23T14:21:10;7.60;42.90
32293;DHT22;43233;48.608;8.838;2024-02-23T14:23:36;7.50;44.00
32293;DHT22;43233;48.608;8.838;2024-02-23T14:26:03;7.50;44.90
32293;DHT22;43233;48.608;8.838;2024-02-23T14:28:28;7.40;45.30
32293;DHT22;43233;48.608;8.838;2024-02-23T14:30:54;7.40;45.80
32293;DHT22;43233;48.608;8.838;2024-02-23T14:33:19;7.40;45.80
32293;DHT22;43233;48.608;8.838;2024-02-23T14:35:46;7.40;46.00
32293;DHT22;43233;48.608;8.838;2024-02-23T14:38:11;7.40;47.40
32293;DHT22;43233;48.608;8.838;2024-02-23T14:40:37;7.40;48.40
32293;DHT22;43233;48.608;8.838;2024-02-23T14:43:03;7.40;47.10
32293;DHT22;43233;48.608;8.838;2024-02-23T14:45:30;7.40;48.00
32293;DHT22;43233;48.608;8.838;2024-02-23T14:47:55;7.30;48.40
32293;DHT22;43233;48.608;8.838;2024-02-23T14:50:21;7.40;48.20
32293;DHT22;43233;48.608;8.838;2024-02-23T14:52:46;7.40;47.70
32293;DHT22;43233;48.608;8.838;2024-02-23T14:55:12;7.40;47.00
32293;DHT22;43233;48.608;8.838;2024-02-23T14:57:38;7.40;47.20
32293;DHT22;43233;48.608;8.838;2024-02-23T15:00:05;7.40;48.20
32293;DHT22;43233;48.608;8.838;2024-02-23T15:02:31;7.40;47.70
32293;DHT22;43233;48.608;8.838;2024-02-23T15:04:56;7.40;47.30
32293;DHT22;43233;48.608;8.838;2024-02-23T15:07:22;7.40;47.80
32293;DHT22;43233;48.608;8.838;2024-02-23T15:09:47;7.40;48.20
32293;DHT22;43233;48.608;8.838;2024-02-23T15:12:13;7.40;48.20
32293;DHT22;43233;48.608;8.838;2024-02-23T15:14:39;7.40;48.50
32293;DHT22;43233;48.608;8.838;2024-02-23T15:17:05;7.40;49.20
32293;DHT22;43233;48.608;8.838;2024-02-23T15:19:31;7.50;49.60
32293;DHT22;43233;48.608;8.838;2024-02-23T15:21:56;7.60;49.00
32293;DHT22;43233;48.608;8.838;2024-02-23T15:24:23;7.60;48.80
32293;DHT22;43233;48.608;8.838;2024-02-23T15:26:50;7.60;48.80
32293;DHT22;43233;48.608;8.838;2024-02-23T15:29:16;7.60;49.00
32293;DHT22;43233;48.608;8.838;2024-02-23T15:31:41;7.60;49.20
32293;DHT22;43233;48.608;8.838;2024-02-23T15:34:09;7.60;48.70
32293;DHT22;43233;48.608;8.838;2024-02-23T15:36:35;7.60;48.20
32293;DHT22;43233;48.608;8.838;2024-02-23T15:39:00;7.60;48.30
32293;DHT22;43233;48.608;8.838;2024-02-23T15:41:32;7.60;48.40